createdAt,value
2022-11-20T00:00:45.632Z,86.8
2022-11-20T00:01:48.879Z,86.8
2022-11-20T00:02:51.928Z,86.9
2022-11-20T00:03:55.364Z,86.9
2022-11-20T00:04:58.066Z,86.9
2022-11-20T00:06:01.802Z,86.9
2022-11-20T00:07:04.825Z,86.9
2022-11-20T00:08:07.955Z,86.9
2022-11-20T00:09:10.469Z,86.8
2022-11-20T00:10:13.294Z,86.8
2022-11-20T00:11:17.338Z,86.8
2022-11-20T00:12:19.733Z,86.7
2022-11-20T00:13:22.780Z,86.8
2022-11-20T00:14:25.829Z,86.9
2022-11-20T00:15:28.867Z,86.9
2022-11-20T00:16:31.360Z,87
2022-11-20T00:17:34.135Z,86.9
2022-11-20T00:18:36.904Z,87
2022-11-20T00:19:40.260Z,87
2022-11-20T00:20:43.305Z,87
2022-11-20T00:21:46.950Z,86.9
2022-11-20T00:22:49.445Z,86.9
2022-11-20T00:23:55.492Z,86.9
2022-11-20T00:24:58.927Z,87
2022-11-20T00:26:02.665Z,87.3
2022-11-20T00:27:06.229Z,87.4
2022-11-20T00:28:09.439Z,87.4
2022-11-20T00:29:12.584Z,87.4
2022-11-20T00:30:16.735Z,87.4
2022-11-20T00:31:19.512Z,87.3
2022-11-20T00:32:21.652Z,87.1
2022-11-20T00:33:23.798Z,87
2022-11-20T00:34:26.497Z,87
2022-11-20T00:35:29.257Z,87
2022-11-20T00:36:31.744Z,87
2022-11-20T00:37:34.899Z,86.9
2022-11-20T00:38:38.370Z,86.9
2022-11-20T00:39:42.085Z,86.9
2022-11-20T00:40:45.572Z,86.9
2022-11-20T00:41:57.777Z,86.9
2022-11-20T00:43:01.031Z,86.8
2022-11-20T00:44:04.351Z,86.8
2022-11-20T00:45:07.143Z,86.8
2022-11-20T00:46:10.521Z,86.8
2022-11-20T00:47:13.636Z,86.8
2022-11-20T00:48:16.844Z,86.8
2022-11-20T00:49:21.925Z,86.8
2022-11-20T00:50:24.476Z,86.7
2022-11-20T00:51:27.516Z,86.8
2022-11-20T00:52:30.933Z,86.7
2022-11-20T00:53:34.103Z,86.8
2022-11-20T00:54:36.823Z,86.8
2022-11-20T00:55:39.049Z,86.8
2022-11-20T00:56:41.825Z,86.8
2022-11-20T00:57:45.015Z,86.8
2022-11-20T00:58:48.738Z,86.7
2022-11-20T00:59:50.882Z,86.7
2022-11-20T01:00:54.248Z,86.6
2022-11-20T01:01:57.124Z,86.6
2022-11-20T01:02:59.542Z,86.6
2022-11-20T01:04:02.902Z,86.5
2022-11-20T01:05:06.112Z,86.5
2022-11-20T01:06:09.361Z,86.5
2022-11-20T01:07:12.333Z,86.5
2022-11-20T01:08:15.781Z,86.5
2022-11-20T01:09:20.444Z,86.5
2022-11-20T01:10:24.001Z,86.5
2022-11-20T01:11:26.977Z,86.5
2022-11-20T01:12:30.048Z,86.5
2022-11-20T01:13:32.555Z,86.5
2022-11-20T01:14:35.803Z,86.7
2022-11-20T01:15:38.976Z,86.6
2022-11-20T01:16:41.512Z,86.6
2022-11-20T01:17:44.358Z,86.7
2022-11-20T01:18:47.486Z,86.9
2022-11-20T01:19:49.908Z,86.9
2022-11-20T01:20:52.855Z,87
2022-11-20T01:21:56.220Z,87.1
2022-11-20T01:22:58.511Z,87.1
2022-11-20T01:24:02.181Z,87.2
2022-11-20T01:25:04.883Z,87.1
2022-11-20T01:26:08.210Z,87.1
2022-11-20T01:27:11.264Z,87.1
2022-11-20T01:28:13.840Z,87.1
2022-11-20T01:29:16.871Z,87.1
2022-11-20T01:30:20.113Z,87
2022-11-20T01:31:23.185Z,87.1
2022-11-20T01:32:25.761Z,87.1
2022-11-20T01:33:28.596Z,87.1
2022-11-20T01:34:31.284Z,87
2022-11-20T01:35:33.781Z,86.9
2022-11-20T01:36:37.496Z,86.9
2022-11-20T01:37:39.642Z,87
2022-11-20T01:38:42.483Z,86.9
2022-11-20T01:39:45.732Z,86.9
2022-11-20T01:40:49.410Z,86.8
2022-11-20T01:41:52.179Z,86.7
2022-11-20T01:42:54.965Z,86.7
2022-11-20T01:43:58.119Z,86.7
2022-11-20T01:45:01.193Z,86.5
2022-11-20T01:46:04.313Z,86.5
2022-11-20T01:47:06.959Z,86.5
2022-11-20T01:48:10.088Z,86.5
2022-11-20T01:49:12.778Z,86.5
2022-11-20T01:50:15.023Z,86.5
2022-11-20T01:51:18.178Z,86.4
2022-11-20T01:52:21.103Z,86.4
2022-11-20T01:53:23.894Z,86.3
2022-11-20T01:54:26.502Z,86.3
2022-11-20T01:55:29.282Z,86.4
2022-11-20T01:56:31.780Z,86.3
2022-11-20T01:57:34.005Z,86.4
2022-11-20T01:58:36.995Z,86.4
2022-11-20T01:59:39.697Z,86.4
2022-11-20T02:00:42.576Z,86.4
2022-11-20T02:01:46.579Z,86.2
2022-11-20T02:02:49.732Z,86.1
2022-11-20T02:03:52.246Z,86
2022-11-20T02:04:55.016Z,86
2022-11-20T02:05:57.248Z,86.1
2022-11-20T02:06:59.603Z,86.1
2022-11-20T02:08:02.507Z,86.2
2022-11-20T02:09:04.644Z,86.3
2022-11-20T02:10:07.761Z,86.3
2022-11-20T02:11:10.457Z,86.3
2022-11-20T02:12:13.151Z,86.3
2022-11-20T02:13:16.493Z,86.2
2022-11-20T02:14:19.152Z,86.2
2022-11-20T02:15:31.107Z,86.2
2022-11-20T02:16:34.181Z,86.2
2022-11-20T02:17:37.433Z,86.2
2022-11-20T02:18:40.206Z,86.1
2022-11-20T02:19:42.697Z,86.1
2022-11-20T02:20:45.952Z,86
2022-11-20T02:21:49.015Z,86.1
2022-11-20T02:22:51.235Z,86.2
2022-11-20T02:23:54.010Z,86.1
2022-11-20T02:24:56.236Z,86.1
2022-11-20T02:25:59.299Z,86.1
2022-11-20T02:27:02.075Z,86.1
2022-11-20T02:28:04.841Z,86
2022-11-20T02:29:07.538Z,86.1
2022-11-20T02:30:10.869Z,86.1
2022-11-20T02:31:13.490Z,86
2022-11-20T02:32:16.508Z,86
2022-11-20T02:33:19.576Z,86
2022-11-20T02:34:23.281Z,85.9
2022-11-20T02:35:26.350Z,85.9
2022-11-20T02:36:29.563Z,85.9
2022-11-20T02:37:32.734Z,85.8
2022-11-20T02:38:35.525Z,85.8
2022-11-20T02:39:37.680Z,85.8
2022-11-20T02:40:40.812Z,85.8
2022-11-20T02:41:43.620Z,85.8
2022-11-20T02:42:46.975Z,85.8
2022-11-20T02:43:50.373Z,85.9
2022-11-20T02:44:53.778Z,85.9
2022-11-20T02:45:56.370Z,85.9
2022-11-20T02:46:59.629Z,85.9
2022-11-20T02:48:01.857Z,85.9
2022-11-20T02:49:04.987Z,85.9
2022-11-20T02:50:08.084Z,85.9
2022-11-20T02:51:10.581Z,85.9
2022-11-20T02:52:14.290Z,85.8
2022-11-20T02:53:17.075Z,85.8
2022-11-20T02:54:19.815Z,85.8
2022-11-20T02:55:22.733Z,85.8
2022-11-20T02:56:25.497Z,85.7
2022-11-20T02:57:27.913Z,85.7
2022-11-20T02:58:30.963Z,85.7
2022-11-20T02:59:34.321Z,85.7
2022-11-20T03:00:37.123Z,85.7
2022-11-20T03:01:40.176Z,85.7
2022-11-20T03:02:43.397Z,85.8
2022-11-20T03:03:45.812Z,85.8
2022-11-20T03:04:48.870Z,85.8
2022-11-20T03:05:51.721Z,85.8
2022-11-20T03:06:54.784Z,85.9
2022-11-20T03:07:58.118Z,86
2022-11-20T03:09:01.490Z,86
2022-11-20T03:10:04.147Z,85.8
2022-11-20T03:11:06.947Z,85.8
2022-11-20T03:12:10.657Z,85.9
2022-11-20T03:13:13.868Z,85.9
2022-11-20T03:14:16.927Z,85.9
2022-11-20T03:15:19.896Z,86
2022-11-20T03:16:22.958Z,85.9
2022-11-20T03:17:25.748Z,85.9
2022-11-20T03:18:28.512Z,85.9
2022-11-20T03:19:31.353Z,85.8
2022-11-20T03:20:34.018Z,85.8
2022-11-20T03:21:37.277Z,85.8
2022-11-20T03:22:40.247Z,85.7
2022-11-20T03:23:43.235Z,85.7
2022-11-20T03:24:45.820Z,85.7
2022-11-20T03:25:49.060Z,85.6
2022-11-20T03:26:52.065Z,85.6
2022-11-20T03:27:54.810Z,85.6
2022-11-20T03:28:57.860Z,85.5
2022-11-20T03:30:01.000Z,85.5
2022-11-20T03:31:04.036Z,85.5
2022-11-20T03:32:06.752Z,85.5
2022-11-20T03:33:09.449Z,85.5
2022-11-20T03:34:12.424Z,85.4
2022-11-20T03:35:14.999Z,85.4
2022-11-20T03:36:17.719Z,85.4
2022-11-20T03:37:20.792Z,85.4
2022-11-20T03:38:23.629Z,85.5
2022-11-20T03:39:27.398Z,85.5
2022-11-20T03:40:30.036Z,85.6
2022-11-20T03:41:33.681Z,85.7
2022-11-20T03:42:36.456Z,85.6
2022-11-20T03:43:38.874Z,85.6
2022-11-20T03:44:41.657Z,85.5
2022-11-20T03:45:44.643Z,85.6
2022-11-20T03:46:47.499Z,85.4
2022-11-20T03:47:50.090Z,85.5
2022-11-20T03:48:53.845Z,85.6
2022-11-20T03:49:56.610Z,85.8
2022-11-20T03:50:59.315Z,85.7
2022-11-20T03:52:02.282Z,85.7
2022-11-20T03:53:04.855Z,85.8
2022-11-20T03:54:08.008Z,86
2022-11-20T03:55:11.491Z,86
2022-11-20T03:56:14.638Z,86
2022-11-20T03:57:17.790Z,86.1
2022-11-20T03:58:20.790Z,86.2
2022-11-20T03:59:24.702Z,86.2
2022-11-20T04:00:27.928Z,86.1
2022-11-20T04:01:30.698Z,86.1
2022-11-20T04:02:33.597Z,86
2022-11-20T04:03:36.292Z,86
2022-11-20T04:04:39.273Z,86.1
2022-11-20T04:05:41.966Z,86.1
2022-11-20T04:06:44.665Z,86.2
2022-11-20T04:07:47.109Z,86.3
2022-11-20T04:08:55.220Z,86.3
2022-11-20T04:09:58.384Z,86.4
2022-11-20T04:11:01.465Z,86.3
2022-11-20T04:12:03.963Z,86.3
2022-11-20T04:13:06.173Z,86.2
2022-11-20T04:14:08.756Z,86
2022-11-20T04:15:12.431Z,86
2022-11-20T04:16:14.853Z,85.9
2022-11-20T04:17:17.355Z,85.8
2022-11-20T04:18:20.193Z,85.7
2022-11-20T04:19:24.482Z,85.6
2022-11-20T04:20:27.271Z,85.6
2022-11-20T04:21:30.109Z,85.6
2022-11-20T04:22:33.710Z,85.5
2022-11-20T04:23:36.644Z,85.6
2022-11-20T04:24:40.274Z,85.7
2022-11-20T04:25:43.390Z,85.8
2022-11-20T04:26:46.445Z,85.8
2022-11-20T04:27:49.033Z,85.9
2022-11-20T04:28:51.456Z,86
2022-11-20T04:29:54.230Z,86
2022-11-20T04:30:56.732Z,86.2
2022-11-20T04:31:59.154Z,86.1
2022-11-20T04:33:01.945Z,86.1
2022-11-20T04:34:04.718Z,86.1
2022-11-20T04:35:08.703Z,86.1
2022-11-20T04:36:11.559Z,86.1
2022-11-20T04:37:14.352Z,86.1
2022-11-20T04:38:17.710Z,86
2022-11-20T04:39:22.882Z,86
2022-11-20T04:40:25.726Z,85.8
2022-11-20T04:41:28.760Z,85.7
2022-11-20T04:42:32.437Z,85.8
2022-11-20T04:43:35.488Z,85.8
2022-11-20T04:44:38.267Z,85.8
2022-11-20T04:45:41.466Z,85.8
2022-11-20T04:46:44.455Z,85.9
2022-11-20T04:47:47.235Z,85.9
2022-11-20T04:48:50.281Z,86
2022-11-20T04:49:52.994Z,86
2022-11-20T04:50:55.572Z,86
2022-11-20T04:51:59.261Z,86
2022-11-20T04:53:02.114Z,86
2022-11-20T04:54:04.804Z,86
2022-11-20T04:55:08.503Z,86
2022-11-20T04:56:11.757Z,86
2022-11-20T04:57:15.987Z,86
2022-11-20T04:58:18.851Z,86
2022-11-20T04:59:24.067Z,86
2022-11-20T05:00:28.199Z,86
2022-11-20T05:01:31.370Z,85.8
2022-11-20T05:02:34.483Z,85.8
2022-11-20T05:03:43.525Z,85.7
2022-11-20T05:04:46.372Z,85.7
2022-11-20T05:05:49.502Z,85.7
2022-11-20T05:06:52.272Z,85.7
2022-11-20T05:07:54.546Z,85.7
2022-11-20T05:08:57.267Z,85.6
2022-11-20T05:10:00.039Z,85.5
2022-11-20T05:11:02.539Z,85.5
2022-11-20T05:12:05.382Z,85.5
2022-11-20T05:13:07.502Z,85.7
2022-11-20T05:14:11.201Z,85.8
2022-11-20T05:15:13.999Z,86
2022-11-20T05:16:17.187Z,86
2022-11-20T05:17:20.976Z,86
2022-11-20T05:18:23.395Z,86
2022-11-20T05:19:27.161Z,86.1
2022-11-20T05:20:29.382Z,86.1
2022-11-20T05:21:32.629Z,86
2022-11-20T05:22:35.122Z,86
2022-11-20T05:23:37.973Z,86
2022-11-20T05:24:41.094Z,86
2022-11-20T05:25:42.960Z,85.9
2022-11-20T05:26:45.927Z,85.8
2022-11-20T05:27:48.616Z,85.8
2022-11-20T05:28:50.822Z,85.9
2022-11-20T05:29:54.232Z,85.9
2022-11-20T05:30:57.312Z,85.9
2022-11-20T05:32:00.147Z,86.2
2022-11-20T05:33:02.604Z,86.2
2022-11-20T05:34:05.661Z,86.2
2022-11-20T05:35:08.161Z,86.2
2022-11-20T05:36:11.210Z,86.2
2022-11-20T05:37:14.190Z,86.2
2022-11-20T05:38:17.197Z,86.3
2022-11-20T05:39:22.199Z,86.3
2022-11-20T05:40:25.488Z,86.2
2022-11-20T05:41:28.336Z,86.2
2022-11-20T05:42:31.485Z,86.1
2022-11-20T05:43:33.511Z,86
2022-11-20T05:44:35.523Z,86.1
2022-11-20T05:45:38.755Z,86
2022-11-20T05:46:41.616Z,85.9
2022-11-20T05:47:44.458Z,85.9
2022-11-20T05:48:47.336Z,85.8
2022-11-20T05:49:50.582Z,85.8
2022-11-20T05:50:53.633Z,85.8
2022-11-20T05:51:56.618Z,85.8
2022-11-20T05:53:00.015Z,85.8
2022-11-20T05:54:03.163Z,85.7
2022-11-20T05:55:05.659Z,85.7
2022-11-20T05:56:08.493Z,85.7
2022-11-20T05:57:10.856Z,85.7
2022-11-20T05:58:13.338Z,85.6
2022-11-20T05:59:16.033Z,85.5
2022-11-20T06:00:19.069Z,85.5
2022-11-20T06:01:22.442Z,85.4
2022-11-20T06:02:26.067Z,85.3
2022-11-20T06:03:29.305Z,85.3
2022-11-20T06:04:32.278Z,85.3
2022-11-20T06:05:35.128Z,85.3
2022-11-20T06:06:38.004Z,85.3
2022-11-20T06:07:41.037Z,85.3
2022-11-20T06:08:43.936Z,85.2
2022-11-20T06:09:47.251Z,85.2
2022-11-20T06:10:49.954Z,85.2
2022-11-20T06:11:53.015Z,85.2
2022-11-20T06:12:55.789Z,85.1
2022-11-20T06:13:59.112Z,85.1
2022-11-20T06:15:01.893Z,85.1
2022-11-20T06:16:05.668Z,85
2022-11-20T06:17:08.544Z,85
2022-11-20T06:18:11.626Z,85
2022-11-20T06:19:14.969Z,85.1
2022-11-20T06:20:17.661Z,85.1
2022-11-20T06:21:20.459Z,85.1
2022-11-20T06:22:23.865Z,85.1
2022-11-20T06:23:26.914Z,85.1
2022-11-20T06:24:30.068Z,85.1
2022-11-20T06:25:33.021Z,85.1
2022-11-20T06:26:36.272Z,85.1
2022-11-20T06:27:39.167Z,85.2
2022-11-20T06:28:41.676Z,85.1
2022-11-20T06:29:45.006Z,85
2022-11-20T06:30:47.455Z,84.8
2022-11-20T06:31:50.217Z,84.8
2022-11-20T06:32:52.599Z,84.9
2022-11-20T06:33:56.288Z,84.9
2022-11-20T06:34:58.710Z,85
2022-11-20T06:36:11.472Z,85.2
2022-11-20T06:37:14.164Z,85.3
2022-11-20T06:38:17.031Z,85.4
2022-11-20T06:39:20.832Z,85.4
2022-11-20T06:40:24.035Z,85.5
2022-11-20T06:41:26.788Z,85.5
2022-11-20T06:42:29.282Z,85.6
2022-11-20T06:43:32.330Z,85.6
2022-11-20T06:44:36.027Z,85.6
2022-11-20T06:45:38.722Z,85.5
2022-11-20T06:46:41.837Z,85.4
2022-11-20T06:47:44.687Z,85.5
2022-11-20T06:48:47.410Z,85.6
2022-11-20T06:49:50.178Z,85.7
2022-11-20T06:50:52.961Z,85.8
2022-11-20T06:51:55.723Z,85.8
2022-11-20T06:52:58.851Z,85.8
2022-11-20T06:54:01.349Z,85.8
2022-11-20T06:55:03.844Z,85.8
2022-11-20T06:56:06.430Z,85.7
2022-11-20T06:57:09.285Z,85.6
2022-11-20T06:58:11.982Z,85.7
2022-11-20T06:59:15.381Z,85.6
2022-11-20T07:00:19.093Z,85.6
2022-11-20T07:01:22.220Z,85.7
2022-11-20T07:02:24.986Z,85.6
2022-11-20T07:03:27.828Z,85.7
2022-11-20T07:04:30.619Z,85.7
2022-11-20T07:05:33.399Z,85.7
2022-11-20T07:06:36.251Z,85.7
2022-11-20T07:07:39.555Z,85.6
2022-11-20T07:08:43.041Z,85.6
2022-11-20T07:09:45.535Z,85.6
2022-11-20T07:10:49.213Z,85.5
2022-11-20T07:11:52.621Z,85.6
2022-11-20T07:12:56.104Z,85.6
2022-11-20T07:13:59.509Z,85.6
2022-11-20T07:15:02.489Z,85.6
2022-11-20T07:16:04.912Z,85.6
2022-11-20T07:17:08.039Z,85.6
2022-11-20T07:18:10.882Z,85.4
2022-11-20T07:19:13.323Z,85.2
2022-11-20T07:20:15.801Z,85.3
2022-11-20T07:21:18.845Z,85.3
2022-11-20T07:22:22.183Z,85.3
2022-11-20T07:23:25.379Z,85.3
2022-11-20T07:24:29.066Z,85.7
2022-11-20T07:25:32.047Z,85.7
2022-11-20T07:26:35.447Z,85.6
2022-11-20T07:27:38.425Z,85.4
2022-11-20T07:28:41.634Z,85.4
2022-11-20T07:29:44.683Z,85.2
2022-11-20T07:30:46.991Z,85.1
2022-11-20T07:31:49.409Z,85.1
2022-11-20T07:32:52.382Z,85.2
2022-11-20T07:33:55.509Z,85.3
2022-11-20T07:34:59.220Z,85.3
2022-11-20T07:36:02.319Z,85.2
2022-11-20T07:37:11.691Z,85.1
2022-11-20T07:38:15.021Z,85.2
2022-11-20T07:39:18.114Z,85.2
2022-11-20T07:40:21.256Z,85.3
2022-11-20T07:41:24.384Z,85.3
2022-11-20T07:42:27.543Z,85.4
2022-11-20T07:43:30.396Z,85.4
2022-11-20T07:44:33.888Z,85.4
2022-11-20T07:45:36.378Z,85.5
2022-11-20T07:46:40.086Z,85.4
2022-11-20T07:47:42.787Z,85.3
2022-11-20T07:48:45.832Z,85.4
2022-11-20T07:49:48.612Z,85.6
2022-11-20T07:50:50.829Z,85.7
2022-11-20T07:51:52.742Z,85.7
2022-11-20T07:52:55.314Z,85.7
2022-11-20T07:53:57.464Z,85.6
2022-11-20T07:54:59.681Z,85.5
2022-11-20T07:56:03.323Z,85.5
2022-11-20T07:57:05.471Z,85.5
2022-11-20T07:58:08.272Z,85.6
2022-11-20T07:59:11.059Z,85.6
2022-11-20T08:00:14.119Z,85.5
2022-11-20T08:01:16.885Z,85.6
2022-11-20T08:02:20.485Z,85.6
2022-11-20T08:03:26.332Z,85.6
2022-11-20T08:04:29.104Z,85.6
2022-11-20T08:05:31.867Z,85.6
2022-11-20T08:06:35.298Z,85.5
2022-11-20T08:07:38.371Z,85.4
2022-11-20T08:08:44.308Z,85.3
2022-11-20T08:09:47.524Z,85.3
2022-11-20T08:10:50.535Z,85.3
2022-11-20T08:11:53.029Z,85.3
2022-11-20T08:12:55.252Z,85.4
2022-11-20T08:13:58.045Z,85.4
2022-11-20T08:15:00.732Z,85.5
2022-11-20T08:16:03.226Z,85.5
2022-11-20T08:17:06.693Z,85.6
2022-11-20T08:18:33.673Z,85.6
2022-11-20T08:19:36.191Z,85.7
2022-11-20T08:20:39.325Z,85.8
2022-11-20T08:21:42.362Z,85.8
2022-11-20T08:22:44.487Z,85.9
2022-11-20T08:23:47.860Z,85.8
2022-11-20T08:24:50.732Z,85.8
2022-11-20T08:25:53.325Z,85.8
2022-11-20T08:26:56.385Z,85.8
2022-11-20T08:28:21.531Z,85.8
2022-11-20T08:29:25.847Z,85.9
2022-11-20T08:30:28.812Z,85.7
2022-11-20T08:31:31.565Z,85.8
2022-11-20T08:32:35.231Z,85.7
2022-11-20T08:33:38.544Z,85.8
2022-11-20T08:34:41.973Z,85.8
2022-11-20T08:35:44.747Z,85.7
2022-11-20T08:36:48.457Z,85.7
2022-11-20T08:37:51.307Z,85.7
2022-11-20T08:38:54.083Z,85.7
2022-11-20T08:39:56.861Z,85.8
2022-11-20T08:40:59.553Z,85.9
2022-11-20T08:42:02.059Z,85.9
2022-11-20T08:43:05.043Z,85.9
2022-11-20T08:44:07.328Z,85.9
2022-11-20T08:45:10.782Z,86.1
2022-11-20T08:46:13.304Z,86.1
2022-11-20T08:47:16.356Z,86
2022-11-20T08:48:19.496Z,86
2022-11-20T08:49:24.298Z,85.9
2022-11-20T08:50:27.187Z,86
2022-11-20T08:51:30.060Z,85.9
2022-11-20T08:52:40.597Z,86.2
2022-11-20T08:53:43.656Z,86.1
2022-11-20T08:54:46.475Z,86.2
2022-11-20T08:55:49.599Z,86.3
2022-11-20T08:56:52.663Z,86.3
2022-11-20T08:57:54.800Z,86.3
2022-11-20T09:00:07.558Z,86.3
2022-11-20T09:01:13.214Z,86.3
2022-11-20T09:02:15.888Z,86.4
2022-11-20T09:03:18.654Z,86.5
2022-11-20T09:04:22.085Z,86.7
2022-11-20T09:05:24.389Z,86.9
2022-11-20T09:06:27.728Z,87
2022-11-20T09:07:30.203Z,86.9
2022-11-20T09:08:32.736Z,86.7
2022-11-20T09:09:36.085Z,86.6
2022-11-20T09:10:39.134Z,86.5
2022-11-20T09:11:42.182Z,86.5
2022-11-20T09:12:45.027Z,86.7
2022-11-20T09:13:48.174Z,86.7
2022-11-20T09:14:56.130Z,86.7
2022-11-20T09:15:58.896Z,86.7
2022-11-20T09:17:02.225Z,86.7
2022-11-20T09:18:05.551Z,86.7
2022-11-20T09:19:37.118Z,86.7
2022-11-20T09:20:40.883Z,86.5
2022-11-20T09:21:43.985Z,86.5
2022-11-20T09:22:47.410Z,86.6
2022-11-20T09:23:50.248Z,86.7
2022-11-20T09:24:53.271Z,86.7
2022-11-20T09:25:55.689Z,86.8
2022-11-20T09:26:58.477Z,86.9
2022-11-20T09:28:00.649Z,86.9
2022-11-20T09:29:03.516Z,86.8
2022-11-20T09:30:07.219Z,86.9
2022-11-20T09:31:10.442Z,87.3
2022-11-20T09:32:12.311Z,87.5
2022-11-20T09:33:15.747Z,87.6
2022-11-20T09:34:18.235Z,88.1
2022-11-20T09:35:20.850Z,91.9
2022-11-20T09:36:24.556Z,91.7
2022-11-20T09:37:27.685Z,90.3
2022-11-20T09:38:30.715Z,88.9
2022-11-20T09:39:33.770Z,87.7
2022-11-20T09:40:36.848Z,86.6
2022-11-20T09:41:39.827Z,86.5
2022-11-20T09:42:42.641Z,86.3
2022-11-20T09:43:45.692Z,86.2
2022-11-20T09:44:48.761Z,86.3
2022-11-20T09:45:51.746Z,86.5
2022-11-20T09:46:55.432Z,86.6
2022-11-20T09:47:57.954Z,86.6
2022-11-20T09:49:00.994Z,86.6
2022-11-20T09:50:03.857Z,86.7
2022-11-20T09:51:06.641Z,86.6
2022-11-20T09:52:10.354Z,86.6
2022-11-20T09:53:13.686Z,86.7
2022-11-20T09:54:16.681Z,86.7
2022-11-20T09:55:20.358Z,86.7
2022-11-20T09:56:24.087Z,86.5
2022-11-20T09:57:27.523Z,86.2
2022-11-20T09:58:30.574Z,86.3
2022-11-20T09:59:33.826Z,86.5
2022-11-20T10:00:36.529Z,86.7
2022-11-20T10:01:39.753Z,86.7
2022-11-20T10:02:42.801Z,86.8
2022-11-20T10:03:45.571Z,86.8
2022-11-20T10:04:48.990Z,86.6
2022-11-20T10:05:51.749Z,86.5
2022-11-20T10:07:34.149Z,86.4
2022-11-20T10:08:38.376Z,86.4
2022-11-20T10:09:40.878Z,86.4
2022-11-20T10:10:54.266Z,86.5
2022-11-20T10:11:57.322Z,86.5
2022-11-20T10:13:00.402Z,86.3
2022-11-20T10:14:03.733Z,86.3
2022-11-20T10:15:06.972Z,86.5
2022-11-20T10:16:09.469Z,86.4
2022-11-20T10:17:12.363Z,86
2022-11-20T10:18:15.132Z,85.8
2022-11-20T10:19:18.256Z,86
2022-11-20T10:20:22.133Z,86
2022-11-20T10:21:25.486Z,86.2
2022-11-20T10:22:29.123Z,86.4
2022-11-20T10:23:32.209Z,86.7
2022-11-20T10:24:35.795Z,86.7
2022-11-20T10:25:39.226Z,87.1
2022-11-20T10:26:42.863Z,86.9
2022-11-20T10:27:46.199Z,86.7
2022-11-20T10:29:09.066Z,86.7
2022-11-20T10:30:12.950Z,86.5
2022-11-20T10:31:16.600Z,86.5
2022-11-20T10:32:19.928Z,86.4
2022-11-20T10:33:22.904Z,86.4
2022-11-20T10:34:25.678Z,86.2
2022-11-20T10:35:28.720Z,85.9
2022-11-20T10:36:31.869Z,86
2022-11-20T10:37:34.732Z,86
2022-11-20T10:38:38.011Z,85.6
2022-11-20T10:39:41.131Z,85.5
2022-11-20T10:40:44.385Z,85.7
2022-11-20T10:41:47.464Z,85.4
2022-11-20T10:42:50.429Z,85.8
2022-11-20T10:43:52.997Z,86.3
2022-11-20T10:45:05.928Z,86.1
2022-11-20T10:46:10.171Z,86.1
2022-11-20T10:47:12.938Z,86.1
2022-11-20T10:48:16.644Z,85.9
2022-11-20T10:49:21.638Z,86.1
2022-11-20T10:50:25.389Z,86
2022-11-20T10:51:28.638Z,86
2022-11-20T10:52:31.119Z,85.9
2022-11-20T10:53:34.434Z,85.9
2022-11-20T10:54:37.489Z,85.6
2022-11-20T10:55:40.459Z,85.3
2022-11-20T10:56:51.541Z,84.9
2022-11-20T10:57:54.922Z,84.8
2022-11-20T10:58:57.613Z,84.3
2022-11-20T11:00:00.394Z,84.1
2022-11-20T11:01:03.072Z,83.8
2022-11-20T11:02:06.513Z,83.1
2022-11-20T11:03:09.194Z,82.8
2022-11-20T11:04:12.337Z,82.7
2022-11-20T11:05:16.204Z,82
2022-11-20T11:06:18.902Z,81.6
2022-11-20T11:07:22.570Z,81.4
2022-11-20T11:08:25.427Z,81.3
2022-11-20T11:09:28.022Z,81.3
2022-11-20T11:10:31.003Z,81.1
2022-11-20T11:11:33.575Z,80.7
2022-11-20T11:12:35.880Z,80.5
2022-11-20T11:13:38.738Z,80.7
2022-11-20T11:14:41.165Z,80.8
2022-11-20T11:15:44.579Z,80.8
2022-11-20T11:16:47.908Z,80.8
2022-11-20T11:17:50.844Z,80.9
2022-11-20T11:18:53.273Z,79.7
2022-11-20T11:19:56.395Z,79.6
2022-11-20T11:20:59.114Z,78.7
2022-11-20T11:22:02.299Z,78.2
2022-11-20T11:23:05.278Z,78.3
2022-11-20T11:24:43.985Z,78.5
2022-11-20T11:25:47.090Z,79.6
2022-11-20T11:26:50.450Z,79.9
2022-11-20T11:27:53.846Z,79.8
2022-11-20T11:28:56.542Z,78.3
2022-11-20T11:29:58.663Z,78.3
2022-11-20T11:31:01.435Z,78.6
2022-11-20T11:32:04.747Z,78.3
2022-11-20T11:33:08.080Z,78.7
2022-11-20T11:34:10.579Z,79
2022-11-20T11:35:13.550Z,79.3
2022-11-20T11:36:16.032Z,79.6
2022-11-20T11:37:18.932Z,80
2022-11-20T11:38:22.264Z,80
2022-11-20T11:39:26.715Z,80.1
2022-11-20T11:40:30.084Z,80.1
2022-11-20T11:41:33.205Z,79.7
2022-11-20T11:42:36.523Z,79.9
2022-11-20T11:43:39.300Z,79.7
2022-11-20T11:44:41.823Z,80.1
2022-11-20T11:45:44.601Z,80
2022-11-20T11:46:47.721Z,80.7
2022-11-20T11:47:50.792Z,80.3
2022-11-20T11:48:54.052Z,80
2022-11-20T11:49:57.367Z,80.2
2022-11-20T11:51:00.066Z,80.9
2022-11-20T11:52:03.116Z,80.3
2022-11-20T11:53:06.167Z,80.2
2022-11-20T11:54:08.872Z,80
2022-11-20T11:55:13.116Z,80.1
2022-11-20T11:56:16.160Z,80.7
2022-11-20T11:57:18.694Z,80.7
2022-11-20T11:58:21.821Z,80.7
2022-11-20T11:59:26.665Z,80.6
2022-11-20T12:00:30.034Z,80.4
2022-11-20T12:01:34.419Z,80.2
2022-11-20T12:02:36.954Z,80.3
2022-11-20T12:03:40.316Z,80.6
2022-11-20T12:04:43.429Z,80.5
2022-11-20T12:05:45.918Z,80.9
2022-11-20T12:06:48.346Z,80.7
2022-11-20T12:07:51.682Z,80.7
2022-11-20T12:08:54.890Z,81.2
2022-11-20T12:09:57.319Z,81.8
2022-11-20T12:11:00.126Z,82.3
2022-11-20T12:12:03.551Z,82.5
2022-11-20T12:13:06.599Z,82.5
2022-11-20T12:14:10.285Z,82.5
2022-11-20T12:15:13.063Z,82.4
2022-11-20T12:16:15.493Z,82.6
2022-11-20T12:17:18.823Z,82.8
2022-11-20T12:18:21.804Z,83
2022-11-20T12:19:26.216Z,83.1
2022-11-20T12:20:29.614Z,82.9
2022-11-20T12:21:32.109Z,82.5
2022-11-20T12:22:35.472Z,82.4
2022-11-20T12:23:37.957Z,82.7
2022-11-20T12:24:40.170Z,83
2022-11-20T12:25:43.233Z,83.2
2022-11-20T12:26:45.530Z,83.3
2022-11-20T12:27:48.503Z,83.2
2022-11-20T12:28:51.188Z,83.1
2022-11-20T12:29:53.659Z,83
2022-11-20T12:30:56.685Z,82.9
2022-11-20T12:31:59.466Z,82.7
2022-11-20T12:33:02.038Z,82.9
2022-11-20T12:34:05.638Z,82.9
2022-11-20T12:35:12.765Z,82.5
2022-11-20T12:36:15.904Z,82.6
2022-11-20T12:37:18.410Z,82.5
2022-11-20T12:38:21.381Z,82.6
2022-11-20T12:39:25.642Z,82.8
2022-11-20T12:40:28.488Z,83.2
2022-11-20T12:41:31.264Z,84.1
2022-11-20T12:42:34.238Z,83.5
2022-11-20T12:43:36.970Z,83
2022-11-20T12:44:40.455Z,82.3
2022-11-20T12:45:43.234Z,82.7
2022-11-20T12:46:45.653Z,83.2
2022-11-20T12:47:48.085Z,83.5
2022-11-20T12:48:51.157Z,83.4
2022-11-20T12:49:53.855Z,83.4
2022-11-20T12:51:26.589Z,83.6
2022-11-20T12:52:30.250Z,83.9
2022-11-20T12:53:33.029Z,83.7
2022-11-20T12:54:36.377Z,83.7
2022-11-20T12:55:39.260Z,83.5
2022-11-20T12:56:41.959Z,83.3
2022-11-20T12:57:45.310Z,83.5
2022-11-20T12:58:48.333Z,83.6
2022-11-20T12:59:51.289Z,84
2022-11-20T13:00:54.617Z,83.2
2022-11-20T13:01:58.163Z,82.7
2022-11-20T13:03:01.608Z,82.9
2022-11-20T13:04:23.787Z,83.3
2022-11-20T13:05:29.205Z,83.9
2022-11-20T13:06:32.636Z,83.8
2022-11-20T13:07:36.628Z,84.1
2022-11-20T13:08:40.175Z,84.1
2022-11-20T13:09:43.792Z,83.9
2022-11-20T13:10:47.162Z,83.5
2022-11-20T13:11:49.866Z,83.2
2022-11-20T13:12:53.116Z,83
2022-11-20T13:13:55.332Z,81.9
2022-11-20T13:14:58.108Z,81.7
2022-11-20T13:16:01.464Z,81.8
2022-11-20T13:17:07.591Z,81.7
2022-11-20T13:18:11.094Z,82
2022-11-20T13:19:13.595Z,81.7
2022-11-20T13:20:16.570Z,81.3
2022-11-20T13:21:19.553Z,81.3
2022-11-20T13:22:22.614Z,81.6
2022-11-20T13:23:25.131Z,82
2022-11-20T13:24:28.843Z,82.4
2022-11-20T13:25:31.663Z,82.2
2022-11-20T13:26:34.775Z,82.6
2022-11-20T13:27:38.129Z,82.7
2022-11-20T13:28:41.186Z,83.1
2022-11-20T13:29:44.435Z,83.3
2022-11-20T13:30:47.556Z,83
2022-11-20T13:31:51.336Z,83.3
2022-11-20T13:32:54.263Z,84
2022-11-20T13:33:57.537Z,84.4
2022-11-20T13:35:01.052Z,84.4
2022-11-20T13:36:03.478Z,84.4
2022-11-20T13:37:06.389Z,84.2
2022-11-20T13:38:09.249Z,84.3
2022-11-20T13:39:12.648Z,84.8
2022-11-20T13:40:15.766Z,84.7
2022-11-20T13:41:19.202Z,84.7
2022-11-20T13:42:22.242Z,84.2
2022-11-20T13:43:25.110Z,83.7
2022-11-20T13:44:28.050Z,83.9
2022-11-20T13:45:31.021Z,84.5
2022-11-20T13:46:33.556Z,84.7
2022-11-20T13:47:36.047Z,84.8
2022-11-20T13:48:40.038Z,85.1
2022-11-20T13:49:46.562Z,84.9
2022-11-20T13:50:49.417Z,85.1
2022-11-20T13:51:53.134Z,85.4
2022-11-20T13:52:56.409Z,85.4
2022-11-20T13:54:00.081Z,85.5
2022-11-20T13:55:03.764Z,85.4
2022-11-20T13:56:07.245Z,85.2
2022-11-20T13:57:10.287Z,85.2
2022-11-20T13:58:13.704Z,85.1
2022-11-20T13:59:16.691Z,84.8
2022-11-20T14:00:19.824Z,84.4
2022-11-20T14:01:23.960Z,84.3
2022-11-20T14:02:27.460Z,84.2
2022-11-20T14:04:07.846Z,84.1
2022-11-20T14:05:11.249Z,84.5
2022-11-20T14:06:14.394Z,84.8
2022-11-20T14:07:18.046Z,85
2022-11-20T14:08:21.612Z,85.2
2022-11-20T14:09:24.368Z,85.3
2022-11-20T14:10:33.615Z,85.2
2022-11-20T14:11:36.138Z,85.3
2022-11-20T14:12:39.195Z,85.3